Time;durP1;ratioP1;P1;durP2;ratioP2;P2;SDS_P1;SDS_P2;PMS_P1;PMS_P2;Temp;Humidity;BMP_temperature;BMP_pressure;BME280_temperature;BME280_humidity;BME280_pressure;Samples;Min_cycle;Max_cycle;Signal;HPM_P1;HPM_P2
2022/12/04 00:01:09;;;;;;;34.70;21.95;;;;;;;;;;5074722;28;20519;-69
2022/12/04 00:03:35;;;;;;;32.80;23.25;;;;;;;;;;5074689;28;20063;-68
2022/12/04 00:06:08;;;;;;;31.17;20.92;;;;;;;;;;5074560;28;20051;-70
2022/12/04 00:08:33;;;;;;;32.33;20.52;;;;;;;;;;5074610;28;20039;-70
2022/12/04 00:10:58;;;;;;;38.55;22.95;;;;;;;;;;5056610;28;20017;-70
2022/12/04 00:13:24;;;;;;;35.10;22.35;;;;;;;;;;5074781;28;20119;-70
2022/12/04 00:15:49;;;;;;;33.03;20.35;;;;;;;;;;5074269;28;20031;-70
2022/12/04 00:18:15;;;;;;;34.05;22.80;;;;;;;;;;5074429;28;20021;-71
2022/12/04 00:20:40;;;;;;;34.55;21.85;;;;;;;;;;5074451;28;20040;-70
2022/12/04 00:23:06;;;;;;;30.65;19.38;;;;;;;;;;5056548;28;20363;-70
2022/12/04 00:25:31;;;;;;;30.08;20.13;;;;;;;;;;5056337;28;20414;-71
2022/12/04 00:27:57;;;;;;;25.33;18.02;;;;;;;;;;5074316;28;20076;-70
2022/12/04 00:30:22;;;;;;;31.58;20.08;;;;;;;;;;5056282;28;20020;-70
2022/12/04 00:32:48;;;;;;;33.58;19.65;;;;;;;;;;5056391;28;20426;-69
2022/12/04 00:35:13;;;;;;;30.13;19.88;;;;;;;;;;5074378;28;20455;-70
2022/12/04 00:37:39;;;;;;;30.05;20.27;;;;;;;;;;5067586;28;20048;-70
2022/12/04 00:40:04;;;;;;;30.10;18.92;;;;;;;;;;5094253;28;20032;-70
2022/12/04 00:42:30;;;;;;;30.95;18.98;;;;;;;;;;5094487;28;20034;-70
2022/12/04 00:44:55;;;;;;;29.55;19.33;;;;;;;;;;5094310;28;20029;-70
2022/12/04 00:47:20;;;;;;;23.90;15.07;;;;;;;;;;5094231;28;20043;-71
2022/12/04 00:49:46;;;;;;;31.48;20.05;;;;;;;;;;5094424;28;20059;-70
2022/12/04 00:52:11;;;;;;;29.65;18.50;;;;;;;;;;5094028;28;20073;-69
2022/12/04 00:54:36;;;;;;;31.80;20.67;;;;;;;;;;5094716;28;20430;-70
2022/12/04 00:57:02;;;;;;;27.80;18.63;;;;;;;;;;5075863;28;20035;-70
2022/12/04 00:59:27;;;;;;;29.52;19.83;;;;;;;;;;5094639;28;20028;-71
2022/12/04 01:01:53;;;;;;;28.80;19.05;;;;;;;;;;5093000;28;20032;-70
2022/12/04 01:04:18;;;;;;;29.77;20.40;;;;;;;;;;5093932;28;20016;-70
2022/12/04 01:06:45;;;;;;;30.15;19.15;;;;;;;;;;5093833;28;20020;-70
2022/12/04 01:09:10;;;;;;;26.05;17.20;;;;;;;;;;5094130;28;20027;-69
2022/12/04 01:11:37;;;;;;;27.85;18.02;;;;;;;;;;5093875;28;20016;-71
2022/12/04 01:14:02;;;;;;;26.48;16.90;;;;;;;;;;5075613;28;20038;-71
2022/12/04 01:16:29;;;;;;;28.83;17.52;;;;;;;;;;5093823;28;20032;-71
2022/12/04 01:18:55;;;;;;;30.63;19.55;;;;;;;;;;5094042;28;20048;-72
2022/12/04 01:21:20;;;;;;;30.23;18.30;;;;;;;;;;5093697;28;20369;-71
2022/12/04 01:23:45;;;;;;;25.70;17.48;;;;;;;;;;5093819;28;20019;-71
2022/12/04 01:26:11;;;;;;;31.17;19.95;;;;;;;;;;5093655;28;20397;-71
2022/12/04 01:28:37;;;;;;;30.60;19.15;;;;;;;;;;5094127;28;20028;-70
2022/12/04 01:31:04;;;;;;;27.20;18.02;;;;;;;;;;5093890;28;20028;-70
2022/12/04 01:33:30;;;;;;;30.52;19.25;;;;;;;;;;5075501;28;20016;-70
2022/12/04 01:35:58;;;;;;;26.85;17.70;;;;;;;;;;5093545;28;20107;-70
2022/12/04 01:38:23;;;;;;;32.25;19.88;;;;;;;;;;5075785;28;20465;-71
2022/12/04 01:40:49;;;;;;;28.08;18.85;;;;;;;;;;5073671;28;20059;-71
2022/12/04 01:43:15;;;;;;;32.72;19.30;;;;;;;;;;5073384;28;20529;-70
2022/12/04 01:45:44;;;;;;;31.52;18.73;;;;;;;;;;5073349;28;20055;-70
2022/12/04 01:48:13;;;;;;;29.02;17.45;;;;;;;;;;5073322;28;20021;-70
2022/12/04 01:50:39;;;;;;;27.63;17.55;;;;;;;;;;5073312;28;20036;-70
2022/12/04 01:53:04;;;;;;;29.08;19.02;;;;;;;;;;5073269;28;20069;-70
2022/12/04 01:55:30;;;;;;;31.52;19.10;;;;;;;;;;5073373;28;20085;-70
2022/12/04 01:57:55;;;;;;;35.13;20.77;;;;;;;;;;5073401;28;20020;-70
2022/12/04 02:00:21;;;;;;;28.77;18.65;;;;;;;;;;5073562;28;20021;-70
2022/12/04 02:02:47;;;;;;;29.50;18.52;;;;;;;;;;5055085;28;20016;-70
2022/12/04 02:05:14;;;;;;;27.55;16.88;;;;;;;;;;5073476;28;20060;-68
2022/12/04 02:07:40;;;;;;;29.33;17.40;;;;;;;;;;5055176;28;20098;-68
2022/12/04 02:10:07;;;;;;;28.70;18.98;;;;;;;;;;5073226;28;20025;-69
2022/12/04 02:12:48;;;;;;;28.40;17.15;;;;;;;;;;5073928;28;20373;-70
2022/12/04 02:15:32;;;;;;;28.67;17.52;;;;;;;;;;5076929;28;20398;-70
2022/12/04 02:18:17;;;;;;;26.58;17.52;;;;;;;;;;5076972;28;20450;-70
2022/12/04 02:20:48;;;;;;;26.38;17.08;;;;;;;;;;5076642;28;20024;-70
2022/12/04 02:23:32;;;;;;;26.85;16.92;;;;;;;;;;5076818;28;20095;-70
2022/12/04 02:26:01;;;;;;;27.67;16.00;;;;;;;;;;5076740;28;20476;-70
2022/12/04 02:28:30;;;;;;;28.70;16.38;;;;;;;;;;5076537;28;20434;-70
2022/12/04 02:30:57;;;;;;;24.83;16.75;;;;;;;;;;5076581;28;20033;-70
2022/12/04 02:33:48;;;;;;;23.85;16.48;;;;;;;;;;5058519;28;20038;-70
2022/12/04 02:36:26;;;;;;;27.17;17.02;;;;;;;;;;5044963;28;20379;-69
2022/12/04 02:39:00;;;;;;;24.45;15.77;;;;;;;;;;5078370;28;20040;-70
2022/12/04 02:41:39;;;;;;;25.67;16.17;;;;;;;;;;5096588;28;20130;-70
2022/12/04 02:44:10;;;;;;;24.23;14.57;;;;;;;;;;5096593;28;20379;-70
2022/12/04 02:46:38;;;;;;;22.73;15.90;;;;;;;;;;5096661;28;20406;-70
2022/12/04 02:49:06;;;;;;;24.88;16.23;;;;;;;;;;5096622;28;20031;-68
2022/12/04 02:51:34;;;;;;;20.67;15.35;;;;;;;;;;5096351;28;20032;-68
2022/12/04 02:54:03;;;;;;;22.42;16.20;;;;;;;;;;5096258;28;20027;-68
2022/12/04 02:56:31;;;;;;;23.02;14.95;;;;;;;;;;5096148;28;20040;-68
2022/12/04 02:59:25;;;;;;;21.73;14.05;;;;;;;;;;5096316;28;20035;-68
2022/12/04 03:01:52;;;;;;;22.92;15.35;;;;;;;;;;5082216;28;20110;-68
2022/12/04 03:04:23;;;;;;;22.35;15.77;;;;;;;;;;5096387;28;20031;-68
2022/12/04 03:06:51;;;;;;;22.60;14.70;;;;;;;;;;5096003;28;20032;-68
2022/12/04 03:09:21;;;;;;;21.15;14.23;;;;;;;;;;5096376;28;20020;-68
2022/12/04 03:11:52;;;;;;;22.50;15.40;;;;;;;;;;5095768;28;20497;-70
2022/12/04 03:14:23;;;;;;;20.63;14.52;;;;;;;;;;5096040;28;20028;-69
2022/12/04 03:16:52;;;;;;;21.42;15.25;;;;;;;;;;5095727;28;20035;-70
2022/12/04 03:19:36;;;;;;;20.70;14.77;;;;;;;;;;5095993;28;20027;-69
2022/12/04 03:22:07;;;;;;;23.05;16.05;;;;;;;;;;5096269;28;20035;-68
2022/12/04 03:24:33;;;;;;;19.15;13.93;;;;;;;;;;5076511;28;20036;-69
2022/12/04 03:26:59;;;;;;;21.30;14.57;;;;;;;;;;5095704;28;20381;-69
2022/12/04 03:29:32;;;;;;;18.92;12.90;;;;;;;;;;5077472;28;20032;-69
2022/12/04 03:32:10;;;;;;;20.83;13.95;;;;;;;;;;5095773;28;20081;-69
2022/12/04 03:34:47;;;;;;;20.83;14.10;;;;;;;;;;5095353;28;20036;-69
2022/12/04 03:37:15;;;;;;;20.65;14.25;;;;;;;;;;5095525;28;20036;-68
2022/12/04 03:39:46;;;;;;;19.98;13.65;;;;;;;;;;5095415;28;20043;-69
2022/12/04 03:42:20;;;;;;;17.27;13.18;;;;;;;;;;5095371;28;20381;-70
2022/12/04 03:45:09;;;;;;;21.35;13.75;;;;;;;;;;5095646;28;20453;-69
2022/12/04 03:47:37;;;;;;;19.48;15.77;;;;;;;;;;5084355;28;20082;-70
2022/12/04 03:50:15;;;;;;;20.63;14.98;;;;;;;;;;5095384;28;20023;-70
2022/12/04 03:52:53;;;;;;;19.23;12.88;;;;;;;;;;5095218;28;20028;-70
2022/12/04 03:55:28;;;;;;;19.85;14.27;;;;;;;;;;5095194;28;20097;-71
2022/12/04 03:57:57;;;;;;;17.25;12.50;;;;;;;;;;5095799;28;20050;-71
2022/12/04 04:00:23;;;;;;;16.92;12.68;;;;;;;;;;5095180;28;20047;-70
2022/12/04 04:02:48;;;;;;;18.30;14.07;;;;;;;;;;5095066;28;20028;-70
2022/12/04 04:05:14;;;;;;;18.17;14.68;;;;;;;;;;5095110;28;20023;-70
2022/12/04 04:10:51;;;;;;;18.25;12.90;;;;;;;;;;5094965;28;20032;-69
2022/12/04 04:24:44;;;;;;;16.42;11.73;;;;;;;;;;5038959;28;20051;-67
2022/12/04 04:27:09;;;;;;;15.02;11.48;;;;;;;;;;5094512;28;20032;-67
2022/12/04 04:29:34;;;;;;;16.17;11.93;;;;;;;;;;5094763;28;20023;-67
2022/12/04 04:32:12;;;;;;;15.40;11.18;;;;;;;;;;5094434;28;20420;-68
2022/12/04 04:34:37;;;;;;;16.20;13.23;;;;;;;;;;5069869;28;20078;-69
2022/12/04 04:37:14;;;;;;;16.83;12.30;;;;;;;;;;5094424;28;20047;-68
2022/12/04 04:39:43;;;;;;;15.07;11.60;;;;;;;;;;5094332;28;20145;-69
2022/12/04 04:42:14;;;;;;;16.35;12.65;;;;;;;;;;5076117;28;20036;-68
2022/12/04 04:44:45;;;;;;;16.33;11.63;;;;;;;;;;5076677;28;20123;-69
2022/12/04 04:47:15;;;;;;;13.40;11.07;;;;;;;;;;5094805;28;20028;-69
2022/12/04 04:49:40;;;;;;;15.30;11.75;;;;;;;;;;5094293;28;20050;-68
2022/12/04 04:52:06;;;;;;;15.57;12.40;;;;;;;;;;5094402;28;20438;-68
2022/12/04 04:54:32;;;;;;;16.85;12.63;;;;;;;;;;5094592;28;20032;-68
2022/12/04 04:56:58;;;;;;;16.42;12.25;;;;;;;;;;5094007;28;20463;-67
2022/12/04 04:59:23;;;;;;;15.20;12.48;;;;;;;;;;5094380;28;20042;-68
2022/12/04 05:01:48;;;;;;;15.75;12.38;;;;;;;;;;5075544;28;20016;-69
2022/12/04 05:04:14;;;;;;;13.32;10.25;;;;;;;;;;5093985;28;20073;-69
2022/12/04 05:06:39;;;;;;;13.82;11.77;;;;;;;;;;5094111;28;20043;-70
2022/12/04 05:09:05;;;;;;;13.27;10.73;;;;;;;;;;5094281;28;20028;-70
2022/12/04 05:11:30;;;;;;;15.40;11.68;;;;;;;;;;5093637;28;20051;-70
2022/12/04 05:13:55;;;;;;;13.93;11.80;;;;;;;;;;5094218;28;20024;-70
2022/12/04 05:16:21;;;;;;;11.43;10.32;;;;;;;;;;5093731;28;20454;-70
2022/12/04 05:21:32;;;;;;;14.10;10.68;;;;;;;;;;5093641;28;20067;-70
2022/12/04 05:23:57;;;;;;;13.40;10.88;;;;;;;;;;5093913;28;20052;-71
2022/12/04 05:26:23;;;;;;;12.18;10.40;;;;;;;;;;5075741;28;20026;-71
2022/12/04 05:28:48;;;;;;;12.43;10.60;;;;;;;;;;5093839;28;20043;-70
2022/12/04 05:31:14;;;;;;;12.50;10.20;;;;;;;;;;5094375;28;20054;-70
2022/12/04 05:33:39;;;;;;;13.52;10.27;;;;;;;;;;5075231;28;20025;-70
2022/12/04 05:36:06;;;;;;;13.27;10.10;;;;;;;;;;5093315;28;20032;-70
2022/12/04 05:38:31;;;;;;;12.98;10.40;;;;;;;;;;5093762;28;20077;-70
2022/12/04 05:40:57;;;;;;;11.88;9.75;;;;;;;;;;5075428;28;20017;-70
2022/12/04 05:43:23;;;;;;;12.02;9.93;;;;;;;;;;5093343;28;20024;-68
2022/12/04 05:45:48;;;;;;;12.38;10.43;;;;;;;;;;5093663;28;20020;-68
2022/12/04 05:48:14;;;;;;;10.30;9.20;;;;;;;;;;5095545;28;20073;-68
2022/12/04 05:50:39;;;;;;;11.77;10.05;;;;;;;;;;5079436;28;20381;-69
2022/12/04 05:53:05;;;;;;;12.80;10.00;;;;;;;;;;5078962;28;20031;-73
2022/12/04 05:55:30;;;;;;;11.82;10.60;;;;;;;;;;5097492;28;20105;-75
2022/12/04 05:57:56;;;;;;;9.85;8.38;;;;;;;;;;5098073;28;20085;-74
2022/12/04 06:00:21;;;;;;;13.40;9.32;;;;;;;;;;5097093;28;20024;-70
2022/12/04 06:02:47;;;;;;;13.13;9.50;;;;;;;;;;5097384;28;20077;-71
2022/12/04 06:05:12;;;;;;;11.63;10.38;;;;;;;;;;5079189;28;20020;-71
2022/12/04 06:07:38;;;;;;;12.25;10.35;;;;;;;;;;5097226;28;20043;-71
2022/12/04 06:10:04;;;;;;;16.30;11.85;;;;;;;;;;5097352;28;20046;-70
2022/12/04 06:12:30;;;;;;;15.38;11.50;;;;;;;;;;5097431;28;20641;-70
2022/12/04 06:14:55;;;;;;;13.27;10.75;;;;;;;;;;5096895;28;20119;-70
2022/12/04 06:17:21;;;;;;;14.85;10.20;;;;;;;;;;5097551;28;20055;-70
2022/12/04 06:19:46;;;;;;;13.13;10.05;;;;;;;;;;5096921;28;20016;-68
2022/12/04 06:22:11;;;;;;;40.22;22.40;;;;;;;;;;5096432;28;20024;-69
2022/12/04 06:24:37;;;;;;;13.02;10.88;;;;;;;;;;5097201;28;20461;-69
2022/12/04 06:27:03;;;;;;;19.40;15.07;;;;;;;;;;5096311;28;20028;-69
2022/12/04 06:29:28;;;;;;;15.07;12.20;;;;;;;;;;5096564;28;20707;-69
2022/12/04 06:31:53;;;;;;;13.73;10.57;;;;;;;;;;5096605;28;20028;-68
2022/12/04 06:34:19;;;;;;;12.52;10.38;;;;;;;;;;5096143;28;20026;-68
2022/12/04 06:36:44;;;;;;;15.82;12.07;;;;;;;;;;5077592;28;20040;-69
2022/12/04 06:39:10;;;;;;;11.63;10.43;;;;;;;;;;5095307;28;20024;-69
2022/12/04 06:41:35;;;;;;;14.52;11.40;;;;;;;;;;5095565;28;20114;-69
2022/12/04 06:44:00;;;;;;;15.02;10.55;;;;;;;;;;5096443;28;20083;-68
2022/12/04 06:46:27;;;;;;;39.33;21.60;;;;;;;;;;5078227;28;20027;-69
2022/12/04 06:48:54;;;;;;;13.60;11.40;;;;;;;;;;5096310;28;20008;-68
2022/12/04 06:51:20;;;;;;;17.60;15.43;;;;;;;;;;5096158;28;20024;-68
2022/12/04 06:53:46;;;;;;;17.05;12.15;;;;;;;;;;5096117;28;20020;-69
2022/12/04 06:56:16;;;;;;;18.08;13.02;;;;;;;;;;5095660;28;20024;-69
2022/12/04 06:58:42;;;;;;;16.92;13.80;;;;;;;;;;5076998;28;20032;-69
2022/12/04 07:01:09;;;;;;;22.40;16.98;;;;;;;;;;5094785;28;20107;-69
2022/12/04 07:03:34;;;;;;;16.00;13.05;;;;;;;;;;5095055;28;20028;-69
2022/12/04 07:06:08;;;;;;;28.35;19.65;;;;;;;;;;5095019;28;20016;-69
2022/12/04 07:08:34;;;;;;;23.77;17.40;;;;;;;;;;5094842;28;20047;-69
2022/12/04 07:11:00;;;;;;;18.75;13.60;;;;;;;;;;5094883;28;20020;-69
2022/12/04 07:13:26;;;;;;;14.82;11.82;;;;;;;;;;5094854;28;20032;-69
2022/12/04 07:15:51;;;;;;;11.95;10.15;;;;;;;;;;5094791;28;20090;-69
2022/12/04 07:18:17;;;;;;;16.00;12.95;;;;;;;;;;5077468;28;20028;-70
2022/12/04 07:20:42;;;;;;;10.93;9.05;;;;;;;;;;5095314;28;20381;-69
2022/12/04 07:23:07;;;;;;;11.80;9.30;;;;;;;;;;5095488;28;20020;-69
2022/12/04 07:25:33;;;;;;;10.77;9.25;;;;;;;;;;5095508;28;20481;-70
2022/12/04 07:27:58;;;;;;;11.25;9.95;;;;;;;;;;5077558;28;20058;-70
2022/12/04 07:30:23;;;;;;;12.88;10.70;;;;;;;;;;5096127;28;20028;-69
2022/12/04 07:32:49;;;;;;;10.45;8.43;;;;;;;;;;5095572;28;20055;-70
2022/12/04 07:35:14;;;;;;;13.85;10.15;;;;;;;;;;5095728;28;20012;-69
2022/12/04 07:37:40;;;;;;;13.68;10.98;;;;;;;;;;5095303;28;20390;-69
2022/12/04 07:40:05;;;;;;;13.15;11.07;;;;;;;;;;5095689;28;20016;-69
2022/12/04 07:42:31;;;;;;;14.82;13.27;;;;;;;;;;5095693;28;20031;-69
2022/12/04 07:44:56;;;;;;;13.23;10.40;;;;;;;;;;5095368;28;20472;-69
2022/12/04 07:47:21;;;;;;;13.50;12.07;;;;;;;;;;5095307;28;20028;-69
2022/12/04 07:49:47;;;;;;;16.08;11.50;;;;;;;;;;5076652;28;20466;-69
2022/12/04 07:52:12;;;;;;;13.07;11.38;;;;;;;;;;5093803;28;20043;-69
2022/12/04 07:54:37;;;;;;;13.25;10.88;;;;;;;;;;5075672;28;20032;-69
2022/12/04 07:57:03;;;;;;;12.43;10.50;;;;;;;;;;5075580;28;20055;-69
2022/12/04 07:59:28;;;;;;;10.73;8.70;;;;;;;;;;5093950;28;20069;-69
2022/12/04 08:01:53;;;;;;;13.55;11.68;;;;;;;;;;5075444;28;20119;-69
2022/12/04 08:04:19;;;;;;;24.48;21.70;;;;;;;;;;5075886;28;20016;-69
2022/12/04 08:06:44;;;;;;;19.27;15.05;;;;;;;;;;5076808;28;20085;-69
2022/12/04 08:09:09;;;;;;;24.88;19.45;;;;;;;;;;5095145;28;20019;-69
2022/12/04 08:11:35;;;;;;;17.55;13.65;;;;;;;;;;5076277;28;20031;-69
2022/12/04 08:14:02;;;;;;;17.17;14.15;;;;;;;;;;5094780;28;20016;-69
2022/12/04 08:16:29;;;;;;;15.35;11.65;;;;;;;;;;5094689;28;20451;-69
2022/12/04 08:18:55;;;;;;;12.00;9.90;;;;;;;;;;5094689;28;20017;-69
2022/12/04 08:21:22;;;;;;;14.32;9.35;;;;;;;;;;5094665;28;20028;-69
2022/12/04 08:23:48;;;;;;;11.95;9.82;;;;;;;;;;5094927;28;20053;-69
2022/12/04 08:26:13;;;;;;;19.38;12.90;;;;;;;;;;5094596;28;20076;-69
2022/12/04 08:28:39;;;;;;;14.95;11.15;;;;;;;;;;5094813;28;20095;-69
2022/12/04 08:31:05;;;;;;;15.07;11.68;;;;;;;;;;5094486;28;20389;-69
2022/12/04 08:33:31;;;;;;;26.27;18.67;;;;;;;;;;5094691;28;20024;-69
2022/12/04 08:35:56;;;;;;;25.73;15.85;;;;;;;;;;5094333;28;20035;-69
2022/12/04 08:38:22;;;;;;;14.23;11.85;;;;;;;;;;5094258;28;20516;-69
2022/12/04 08:40:47;;;;;;;12.02;10.07;;;;;;;;;;5076180;28;20024;-69
2022/12/04 08:43:12;;;;;;;16.95;11.60;;;;;;;;;;5094862;28;20023;-69
2022/12/04 08:45:38;;;;;;;22.08;17.27;;;;;;;;;;5094526;28;20382;-69
2022/12/04 08:48:04;;;;;;;15.77;12.85;;;;;;;;;;5076122;28;20027;-69
2022/12/04 08:50:29;;;;;;;23.08;14.57;;;;;;;;;;5076412;28;20064;-69
2022/12/04 08:52:54;;;;;;;20.77;15.50;;;;;;;;;;5094396;28;20031;-69
2022/12/04 08:55:20;;;;;;;18.85;13.75;;;;;;;;;;5094289;28;20038;-69
2022/12/04 08:57:45;;;;;;;21.25;15.20;;;;;;;;;;5094340;28;20061;-69
2022/12/04 09:00:11;;;;;;;18.35;16.00;;;;;;;;;;5094299;28;20484;-69
2022/12/04 09:02:37;;;;;;;17.75;13.73;;;;;;;;;;5076543;28;20081;-69
2022/12/04 09:05:02;;;;;;;15.13;12.43;;;;;;;;;;5093931;28;20063;-69
2022/12/04 09:07:27;;;;;;;15.07;11.65;;;;;;;;;;5094239;28;20031;-69
2022/12/04 09:09:53;;;;;;;14.90;11.73;;;;;;;;;;5094179;28;20036;-69
2022/12/04 09:12:18;;;;;;;16.10;12.48;;;;;;;;;;5093888;28;20032;-69
2022/12/04 09:14:44;;;;;;;17.65;12.55;;;;;;;;;;5094040;28;20028;-69
2022/12/04 09:17:09;;;;;;;16.70;13.98;;;;;;;;;;5094125;28;20077;-69
2022/12/04 09:19:35;;;;;;;15.20;11.98;;;;;;;;;;5093756;28;20021;-69
2022/12/04 09:22:01;;;;;;;15.65;12.77;;;;;;;;;;5093190;28;20015;-69
2022/12/04 09:24:28;;;;;;;15.30;11.10;;;;;;;;;;5075837;28;20024;-69
2022/12/04 09:26:53;;;;;;;15.77;12.65;;;;;;;;;;5093722;28;20020;-69
2022/12/04 09:29:19;;;;;;;15.82;11.50;;;;;;;;;;5093966;28;20031;-69
2022/12/04 09:31:44;;;;;;;16.92;13.75;;;;;;;;;;5093685;28;20049;-69
2022/12/04 09:34:09;;;;;;;15.77;12.50;;;;;;;;;;5075517;28;20028;-69
2022/12/04 09:36:35;;;;;;;16.42;11.93;;;;;;;;;;5093637;28;20055;-69
2022/12/04 09:39:01;;;;;;;20.13;13.55;;;;;;;;;;5075529;28;20493;-69
2022/12/04 09:41:29;;;;;;;15.55;11.82;;;;;;;;;;5093907;28;20016;-69
2022/12/04 09:44:01;;;;;;;19.23;14.88;;;;;;;;;;5075495;28;20485;-69
2022/12/04 09:46:41;;;;;;;18.70;14.63;;;;;;;;;;5094094;28;20039;-69
2022/12/04 09:49:07;;;;;;;;;;;;;;;;;;5076209;28;20032;-69
2022/12/04 09:51:33;;;;;;;21.00;15.00;;;;;;;;;;5075410;28;20033;-69
2022/12/04 09:54:06;;;;;;;19.20;13.57;;;;;;;;;;5075386;28;20035;-69
2022/12/04 09:56:31;;;;;;;18.70;13.30;;;;;;;;;;5075245;28;20028;-69
2022/12/04 09:59:02;;;;;;;21.33;15.93;;;;;;;;;;5075349;28;20069;-69
2022/12/04 10:01:30;;;;;;;15.57;11.82;;;;;;;;;;5093669;28;20039;-69
2022/12/04 10:03:56;;;;;;;17.00;12.25;;;;;;;;;;5093945;28;20016;-69
2022/12/04 10:06:41;;;;;;;17.38;12.55;;;;;;;;;;5093261;28;20111;-69
2022/12/04 10:09:20;;;;;;;17.58;12.73;;;;;;;;;;5061268;28;20067;-69
2022/12/04 10:11:56;;;;;;;23.75;17.10;;;;;;;;;;5075695;28;20078;-69
2022/12/04 10:14:27;;;;;;;22.15;16.38;;;;;;;;;;5093497;28;20044;-69
2022/12/04 10:16:52;;;;;;;;;;;;;;;;;;5093947;28;20059;-69
2022/12/04 10:19:23;;;;;;;18.73;13.70;;;;;;;;;;5093536;28;19947;-69
2022/12/04 10:22:01;;;;;;;23.27;15.82;;;;;;;;;;5093465;28;20032;-69
2022/12/04 10:24:29;;;;;;;18.65;13.10;;;;;;;;;;5093464;28;20054;-69
2022/12/04 10:26:56;;;;;;;18.38;13.90;;;;;;;;;;5093195;28;20095;-69
2022/12/04 10:29:28;;;;;;;19.85;13.75;;;;;;;;;;5093389;28;20028;-69
2022/12/04 10:31:55;;;;;;;20.77;16.38;;;;;;;;;;5093403;28;20421;-69
2022/12/04 10:34:30;;;;;;;19.60;14.30;;;;;;;;;;5095120;28;20027;-69
2022/12/04 10:37:00;;;;;;;16.05;12.38;;;;;;;;;;5096724;28;20040;-70
2022/12/04 10:39:34;;;;;;;16.70;12.90;;;;;;;;;;5096910;28;20020;-70
2022/12/04 10:42:14;;;;;;;17.63;14.00;;;;;;;;;;5079082;28;20036;-69
2022/12/04 10:44:39;;;;;;;16.58;12.32;;;;;;;;;;5096611;28;20043;-69
2022/12/04 10:47:05;;;;;;;20.40;14.52;;;;;;;;;;5096524;28;20396;-69
2022/12/04 10:49:32;;;;;;;21.20;15.82;;;;;;;;;;5096692;28;20066;-69
2022/12/04 10:51:57;;;;;;;18.48;14.52;;;;;;;;;;5078250;28;20371;-69
2022/12/04 10:54:32;;;;;;;19.90;15.38;;;;;;;;;;5078366;28;20031;-69
2022/12/04 10:57:07;;;;;;;17.65;13.75;;;;;;;;;;5096313;28;20385;-69
2022/12/04 10:59:33;;;;;;;20.23;14.82;;;;;;;;;;5096559;28;20420;-69
2022/12/04 11:02:22;;;;;;;25.58;18.15;;;;;;;;;;5078191;28;20032;-69
2022/12/04 11:04:55;;;;;;;19.45;15.30;;;;;;;;;;5085607;28;20040;-69
2022/12/04 11:07:22;;;;;;;21.90;17.00;;;;;;;;;;5096217;28;20032;-69
2022/12/04 11:10:02;;;;;;;26.73;17.38;;;;;;;;;;5096376;28;20028;-69
2022/12/04 11:12:28;;;;;;;22.20;15.03;;;;;;;;;;5096312;28;20047;-69
2022/12/04 11:15:19;;;;;;;25.38;17.88;;;;;;;;;;5096243;28;20020;-69
2022/12/04 11:17:45;;;;;;;22.73;17.10;;;;;;;;;;5075000;28;20032;-69
2022/12/04 11:20:28;;;;;;;48.80;41.60;;;;;;;;;;5095843;28;20017;-69
2022/12/04 11:22:58;;;;;;;22.95;17.00;;;;;;;;;;5095829;28;20031;-69
2022/12/04 11:25:29;;;;;;;20.20;15.13;;;;;;;;;;5096066;28;20024;-69
2022/12/04 11:27:55;;;;;;;20.95;14.85;;;;;;;;;;5077561;28;20387;-69
2022/12/04 11:30:24;;;;;;;21.83;16.88;;;;;;;;;;5096221;28;20023;-69
2022/12/04 11:32:49;;;;;;;20.88;16.00;;;;;;;;;;5095634;28;20028;-69
2022/12/04 11:35:16;;;;;;;26.08;18.58;;;;;;;;;;5095494;28;20560;-69
2022/12/04 11:37:50;;;;;;;30.27;21.83;;;;;;;;;;5077305;28;20092;-69
2022/12/04 11:40:17;;;;;;;24.67;16.60;;;;;;;;;;5077295;28;20386;-69
2022/12/04 11:42:42;;;;;;;31.00;24.88;;;;;;;;;;5095479;28;20020;-69
2022/12/04 11:45:18;;;;;;;27.15;19.17;;;;;;;;;;5094841;28;20047;-69
2022/12/04 11:47:52;;;;;;;23.40;15.95;;;;;;;;;;5077161;28;20174;-69
2022/12/04 11:50:21;;;;;;;22.83;15.82;;;;;;;;;;5095328;28;20115;-69
2022/12/04 11:53:06;;;;;;;23.67;17.58;;;;;;;;;;5095229;28;20024;-69
2022/12/04 11:55:37;;;;;;;21.05;16.75;;;;;;;;;;5095640;28;20454;-69
2022/12/04 11:58:12;;;;;;;18.75;14.60;;;;;;;;;;5095401;28;20095;-69
2022/12/04 12:00:42;;;;;;;20.02;14.60;;;;;;;;;;5095065;28;20024;-69
2022/12/04 12:03:07;;;;;;;;;;;;;;;;;;5096014;28;20157;-69
2022/12/04 12:05:42;;;;;;;26.88;19.85;;;;;;;;;;5095289;28;19965;-69
2022/12/04 12:08:31;;;;;;;23.02;16.52;;;;;;;;;;5094917;28;20107;-69
2022/12/04 12:10:56;;;;;;;22.50;17.05;;;;;;;;;;5095446;28;20028;-69
2022/12/04 12:13:31;;;;;;;21.75;16.08;;;;;;;;;;5076655;28;20378;-69
2022/12/04 12:16:02;;;;;;;26.27;17.83;;;;;;;;;;5094974;28;20062;-69
2022/12/04 12:18:41;;;;;;;27.77;20.35;;;;;;;;;;5095036;28;20082;-69
2022/12/04 12:21:06;;;;;;;44.50;31.75;;;;;;;;;;5094948;28;20378;-69
2022/12/04 12:23:50;;;;;;;25.30;17.83;;;;;;;;;;5094954;28;20016;-69
2022/12/04 12:26:17;;;;;;;28.77;20.13;;;;;;;;;;5077122;28;20393;-69
2022/12/04 12:29:14;;;;;;;36.20;25.75;;;;;;;;;;5094529;28;20030;-69
2022/12/04 12:31:56;;;;;;;34.13;22.65;;;;;;;;;;5043417;28;20126;-69
2022/12/04 12:34:35;;;;;;;35.90;21.27;;;;;;;;;;5094691;28;20454;-69
2022/12/04 12:37:10;;;;;;;41.15;31.05;;;;;;;;;;5094234;28;20051;-69
2022/12/04 12:39:42;;;;;;;38.28;30.25;;;;;;;;;;5076874;28;20020;-69
2022/12/04 12:42:17;;;;;;;32.08;20.95;;;;;;;;;;5094880;28;20032;-69
2022/12/04 12:44:54;;;;;;;37.55;28.05;;;;;;;;;;5076430;28;20031;-69
2022/12/04 12:47:22;;;;;;;28.10;21.58;;;;;;;;;;5076392;28;20063;-70
2022/12/04 12:49:47;;;;;;;32.13;25.35;;;;;;;;;;5096512;28;20024;-69
2022/12/04 12:52:23;;;;;;;28.33;22.25;;;;;;;;;;5095316;28;20039;-69
2022/12/04 12:54:52;;;;;;;27.02;18.17;;;;;;;;;;5094387;28;20412;-69
2022/12/04 12:57:20;;;;;;;26.70;18.67;;;;;;;;;;5094396;28;20016;-70
2022/12/04 12:59:51;;;;;;;25.83;18.48;;;;;;;;;;5094030;28;20028;-69
2022/12/04 13:02:28;;;;;;;23.95;17.60;;;;;;;;;;5094335;28;20024;-69
2022/12/04 13:04:56;;;;;;;28.88;19.92;;;;;;;;;;5094238;28;20432;-69
2022/12/04 13:07:41;;;;;;;32.05;20.30;;;;;;;;;;5093970;28;20028;-69
2022/12/04 13:10:12;;;;;;;34.65;22.48;;;;;;;;;;5076464;28;20032;-69
2022/12/04 13:12:48;;;;;;;32.47;23.20;;;;;;;;;;5094174;28;20028;-69
2022/12/04 13:15:20;;;;;;;27.58;18.38;;;;;;;;;;5093742;28;20428;-69
2022/12/04 13:17:46;;;;;;;38.17;23.60;;;;;;;;;;5094127;28;20420;-69
2022/12/04 13:20:15;;;;;;;30.05;20.42;;;;;;;;;;5093807;28;20417;-69
2022/12/04 13:22:41;;;;;;;29.40;20.65;;;;;;;;;;5093757;28;20074;-69
2022/12/04 13:25:06;;;;;;;29.98;20.17;;;;;;;;;;5093694;28;20024;-69
2022/12/04 13:28:07;;;;;;;30.15;20.20;;;;;;;;;;5093698;28;20054;-69
2022/12/04 13:30:32;;;;;;;31.60;22.45;;;;;;;;;;5011922;28;20042;-69
2022/12/04 13:33:08;;;;;;;33.10;21.13;;;;;;;;;;5076820;28;20046;-69
2022/12/04 13:35:34;;;;;;;34.88;20.67;;;;;;;;;;5094119;28;20285;-69
2022/12/04 13:38:02;;;;;;;30.48;20.05;;;;;;;;;;5093485;28;20052;-69
2022/12/04 13:40:36;;;;;;;31.63;19.98;;;;;;;;;;5093862;28;20422;-69
2022/12/04 13:43:11;;;;;;;28.75;16.75;;;;;;;;;;5075452;28;20025;-69
2022/12/04 13:45:38;;;;;;;33.80;21.48;;;;;;;;;;5093826;28;20592;-69
2022/12/04 13:48:03;;;;;;;36.42;25.13;;;;;;;;;;5075455;28;20024;-69
2022/12/04 13:50:36;;;;;;;33.78;22.10;;;;;;;;;;5093488;28;20070;-69
2022/12/04 13:53:02;;;;;;;27.67;18.42;;;;;;;;;;5076220;28;20421;-69
2022/12/04 13:55:30;;;;;;;41.70;28.77;;;;;;;;;;5093677;28;20024;-69
2022/12/04 13:58:00;;;;;;;35.00;22.42;;;;;;;;;;5093476;28;20125;-69
2022/12/04 14:00:30;;;;;;;67.70;56.97;;;;;;;;;;5093494;28;20078;-69
2022/12/04 14:03:01;;;;;;;36.97;28.58;;;;;;;;;;5093685;28;20021;-69
2022/12/04 14:05:28;;;;;;;27.20;19.73;;;;;;;;;;5093400;28;20024;-69
2022/12/04 14:08:18;;;;;;;47.70;38.42;;;;;;;;;;5075281;28;20472;-69
2022/12/04 14:10:44;;;;;;;29.10;19.23;;;;;;;;;;5097777;28;20035;-69
2022/12/04 14:13:15;;;;;;;35.00;25.05;;;;;;;;;;5097728;28;20027;-69
2022/12/04 14:15:41;;;;;;;32.40;20.90;;;;;;;;;;5097002;28;20386;-69
2022/12/04 14:18:09;;;;;;;35.92;25.98;;;;;;;;;;5078962;28;20020;-69
2022/12/04 14:20:35;;;;;;;37.03;24.23;;;;;;;;;;5097545;28;20031;-69
2022/12/04 14:23:24;;;;;;;54.70;35.10;;;;;;;;;;5097254;28;20020;-69
2022/12/04 14:25:54;;;;;;;43.10;24.90;;;;;;;;;;5097464;28;20071;-69
2022/12/04 14:28:22;;;;;;;44.58;28.05;;;;;;;;;;5097137;28;20039;-69
2022/12/04 14:30:57;;;;;;;57.83;33.28;;;;;;;;;;5096833;28;20032;-69
2022/12/04 14:33:23;;;;;;;38.55;24.23;;;;;;;;;;5097309;28;20083;-69
2022/12/04 14:35:49;;;;;;;41.38;26.75;;;;;;;;;;5096946;28;20032;-69
2022/12/04 14:38:19;;;;;;;40.75;23.58;;;;;;;;;;5096523;28;20494;-70
2022/12/04 14:40:47;;;;;;;35.15;22.40;;;;;;;;;;5079090;28;20025;-69
2022/12/04 14:43:17;;;;;;;32.30;20.23;;;;;;;;;;5078574;28;20036;-69
2022/12/04 14:45:43;;;;;;;42.97;25.50;;;;;;;;;;5097107;28;20035;-69